sensor_id;sensor_type;location;lat;lon;timestamp;temperature;humidity
6164;DHT22;3114;48.362;10.994;2023-07-08T00:01:19;21.60;99.90
6164;DHT22;3114;48.362;10.994;2023-07-08T00:03:50;21.70;99.90
6164;DHT22;3114;48.362;10.994;2023-07-08T00:06:19;21.60;99.90
6164;DHT22;3114;48.362;10.994;2023-07-08T00:08:46;21.70;99.90
6164;DHT22;3114;48.362;10.994;2023-07-08T00:11:16;21.70;99.90
6164;DHT22;3114;48.362;10.994;2023-07-08T00:13:43;21.70;99.90
6164;DHT22;3114;48.362;10.994;2023-07-08T00:16:13;21.70;99.90
6164;DHT22;3114;48.362;10.994;2023-07-08T00:18:51;21.50;99.90
6164;DHT22;3114;48.362;10.994;2023-07-08T00:21:21;21.50;99.90
6164;DHT22;3114;48.362;10.994;2023-07-08T00:23:50;21.30;99.90
6164;DHT22;3114;48.362;10.994;2023-07-08T00:26:23;21.40;99.90
6164;DHT22;3114;48.362;10.994;2023-07-08T00:28:52;21.40;99.90
6164;DHT22;3114;48.362;10.994;2023-07-08T00:31:19;21.30;99.90
6164;DHT22;3114;48.362;10.994;2023-07-08T00:33:50;21.40;99.90
6164;DHT22;3114;48.362;10.994;2023-07-08T00:36:18;21.30;99.90
6164;DHT22;3114;48.362;10.994;2023-07-08T00:38:47;21.30;99.90
6164;DHT22;3114;48.362;10.994;2023-07-08T00:41:22;21.20;99.90
6164;DHT22;3114;48.362;10.994;2023-07-08T00:43:54;21.60;99.90
6164;DHT22;3114;48.362;10.994;2023-07-08T00:46:33;21.20;99.90
6164;DHT22;3114;48.362;10.994;2023-07-08T00:49:15;21.10;99.90
6164;DHT22;3114;48.362;10.994;2023-07-08T00:51:43;21.10;99.90
6164;DHT22;3114;48.362;10.994;2023-07-08T00:54:14;21.10;99.90
6164;DHT22;3114;48.362;10.994;2023-07-08T00:56:44;21.10;99.90
6164;DHT22;3114;48.362;10.994;2023-07-08T00:59:19;21.20;99.90
6164;DHT22;3114;48.362;10.994;2023-07-08T01:01:48;21.10;99.90
6164;DHT22;3114;48.362;10.994;2023-07-08T01:04:22;21.10;99.90
6164;DHT22;3114;48.362;10.994;2023-07-08T01:06:53;21.10;99.90
6164;DHT22;3114;48.362;10.994;2023-07-08T01:09:24;21.00;99.90
6164;DHT22;3114;48.362;10.994;2023-07-08T01:11:56;21.00;99.90
6164;DHT22;3114;48.362;10.994;2023-07-08T01:14:27;20.90;99.90
6164;DHT22;3114;48.362;10.994;2023-07-08T01:16:58;20.90;99.90
6164;DHT22;3114;48.362;10.994;2023-07-08T01:19:28;19.60;99.90
6164;DHT22;3114;48.362;10.994;2023-07-08T01:22:03;20.80;99.90
6164;DHT22;3114;48.362;10.994;2023-07-08T01:24:34;20.80;99.90
6164;DHT22;3114;48.362;10.994;2023-07-08T01:27:03;20.70;99.90
6164;DHT22;3114;48.362;10.994;2023-07-08T01:29:31;20.70;99.90
6164;DHT22;3114;48.362;10.994;2023-07-08T01:31:59;20.60;99.90
6164;DHT22;3114;48.362;10.994;2023-07-08T01:34:28;20.70;99.90
6164;DHT22;3114;48.362;10.994;2023-07-08T01:36:56;20.60;99.90
6164;DHT22;3114;48.362;10.994;2023-07-08T01:39:30;20.60;99.90
6164;DHT22;3114;48.362;10.994;2023-07-08T01:41:58;20.50;99.90
6164;DHT22;3114;48.362;10.994;2023-07-08T01:44:28;20.40;99.90
6164;DHT22;3114;48.362;10.994;2023-07-08T01:46:58;20.40;99.90
6164;DHT22;3114;48.362;10.994;2023-07-08T01:49:27;20.30;99.90
6164;DHT22;3114;48.362;10.994;2023-07-08T01:51:54;20.40;99.90
6164;DHT22;3114;48.362;10.994;2023-07-08T01:54:26;20.40;99.90
6164;DHT22;3114;48.362;10.994;2023-07-08T01:56:55;20.30;99.90
6164;DHT22;3114;48.362;10.994;2023-07-08T01:59:22;20.30;99.90
6164;DHT22;3114;48.362;10.994;2023-07-08T02:01:51;20.30;99.90
6164;DHT22;3114;48.362;10.994;2023-07-08T02:04:20;20.30;99.90
6164;DHT22;3114;48.362;10.994;2023-07-08T02:06:51;20.30;99.90
6164;DHT22;3114;48.362;10.994;2023-07-08T02:09:18;20.20;99.90
6164;DHT22;3114;48.362;10.994;2023-07-08T02:11:47;20.10;99.90
6164;DHT22;3114;48.362;10.994;2023-07-08T02:14:15;20.20;99.90
6164;DHT22;3114;48.362;10.994;2023-07-08T02:16:44;20.20;99.90
6164;DHT22;3114;48.362;10.994;2023-07-08T02:19:11;20.10;99.90
6164;DHT22;3114;48.362;10.994;2023-07-08T02:21:41;20.20;99.90
6164;DHT22;3114;48.362;10.994;2023-07-08T02:24:08;20.20;99.90
6164;DHT22;3114;48.362;10.994;2023-07-08T02:26:35;20.10;99.90
6164;DHT22;3114;48.362;10.994;2023-07-08T02:29:14;20.10;99.90
6164;DHT22;3114;48.362;10.994;2023-07-08T02:31:41;20.10;99.90
6164;DHT22;3114;48.362;10.994;2023-07-08T02:34:08;20.20;99.90
6164;DHT22;3114;48.362;10.994;2023-07-08T02:36:35;20.20;99.90
6164;DHT22;3114;48.362;10.994;2023-07-08T02:39:04;20.20;99.90
6164;DHT22;3114;48.362;10.994;2023-07-08T02:41:31;20.10;99.90
6164;DHT22;3114;48.362;10.994;2023-07-08T02:44:01;20.20;99.90
6164;DHT22;3114;48.362;10.994;2023-07-08T02:46:31;20.10;99.90
6164;DHT22;3114;48.362;10.994;2023-07-08T02:49:02;20.20;99.90
6164;DHT22;3114;48.362;10.994;2023-07-08T02:51:29;20.10;99.90
6164;DHT22;3114;48.362;10.994;2023-07-08T02:53:58;20.00;99.90
6164;DHT22;3114;48.362;10.994;2023-07-08T02:56:27;20.00;99.90
6164;DHT22;3114;48.362;10.994;2023-07-08T02:58:57;20.00;99.90
6164;DHT22;3114;48.362;10.994;2023-07-08T03:01:26;19.90;99.90
6164;DHT22;3114;48.362;10.994;2023-07-08T03:03:59;19.90;99.90
6164;DHT22;3114;48.362;10.994;2023-07-08T03:06:29;19.90;99.90
6164;DHT22;3114;48.362;10.994;2023-07-08T03:08:59;19.70;99.90
6164;DHT22;3114;48.362;10.994;2023-07-08T03:11:26;18.70;99.90
6164;DHT22;3114;48.362;10.994;2023-07-08T03:13:53;19.80;99.90
6164;DHT22;3114;48.362;10.994;2023-07-08T03:16:20;19.90;99.90
6164;DHT22;3114;48.362;10.994;2023-07-08T03:18:47;19.90;99.90
6164;DHT22;3114;48.362;10.994;2023-07-08T03:21:17;19.20;99.90
6164;DHT22;3114;48.362;10.994;2023-07-08T03:23:45;19.90;99.90
6164;DHT22;3114;48.362;10.994;2023-07-08T03:26:17;20.00;99.90
6164;DHT22;3114;48.362;10.994;2023-07-08T03:28:51;19.90;99.90
6164;DHT22;3114;48.362;10.994;2023-07-08T03:31:22;20.00;99.90
6164;DHT22;3114;48.362;10.994;2023-07-08T03:33:54;19.90;99.90
6164;DHT22;3114;48.362;10.994;2023-07-08T03:36:25;19.90;99.90
6164;DHT22;3114;48.362;10.994;2023-07-08T03:38:54;19.90;99.90
6164;DHT22;3114;48.362;10.994;2023-07-08T03:41:21;19.90;99.90
6164;DHT22;3114;48.362;10.994;2023-07-08T03:43:48;20.00;99.90
6164;DHT22;3114;48.362;10.994;2023-07-08T03:46:19;20.00;99.90
6164;DHT22;3114;48.362;10.994;2023-07-08T03:48:48;19.90;99.90
6164;DHT22;3114;48.362;10.994;2023-07-08T03:51:22;19.90;99.90
6164;DHT22;3114;48.362;10.994;2023-07-08T03:53:50;19.90;99.90
6164;DHT22;3114;48.362;10.994;2023-07-08T03:56:17;19.80;99.90
6164;DHT22;3114;48.362;10.994;2023-07-08T03:58:44;19.70;99.90
6164;DHT22;3114;48.362;10.994;2023-07-08T04:01:14;19.60;99.90
6164;DHT22;3114;48.362;10.994;2023-07-08T04:03:43;19.60;99.90
6164;DHT22;3114;48.362;10.994;2023-07-08T04:06:10;19.50;99.90
6164;DHT22;3114;48.362;10.994;2023-07-08T04:08:40;19.40;99.90
6164;DHT22;3114;48.362;10.994;2023-07-08T04:11:08;19.20;99.90
6164;DHT22;3114;48.362;10.994;2023-07-08T04:13:39;19.00;99.90
6164;DHT22;3114;48.362;10.994;2023-07-08T04:16:16;18.80;99.90
6164;DHT22;3114;48.362;10.994;2023-07-08T04:18:44;18.50;99.90
6164;DHT22;3114;48.362;10.994;2023-07-08T04:21:11;18.30;99.90
6164;DHT22;3114;48.362;10.994;2023-07-08T04:23:41;18.30;99.90
6164;DHT22;3114;48.362;10.994;2023-07-08T04:26:08;18.40;99.90
6164;DHT22;3114;48.362;10.994;2023-07-08T04:28:35;18.40;99.90
6164;DHT22;3114;48.362;10.994;2023-07-08T04:31:02;18.50;99.90
6164;DHT22;3114;48.362;10.994;2023-07-08T04:33:39;18.60;99.90
6164;DHT22;3114;48.362;10.994;2023-07-08T04:36:11;18.70;99.90
6164;DHT22;3114;48.362;10.994;2023-07-08T04:38:40;18.60;99.90
6164;DHT22;3114;48.362;10.994;2023-07-08T04:41:12;19.00;99.90
6164;DHT22;3114;48.362;10.994;2023-07-08T04:43:40;19.30;99.90
6164;DHT22;3114;48.362;10.994;2023-07-08T04:46:17;19.50;99.90
6164;DHT22;3114;48.362;10.994;2023-07-08T04:48:46;19.70;99.90
6164;DHT22;3114;48.362;10.994;2023-07-08T04:51:14;19.60;99.90
6164;DHT22;3114;48.362;10.994;2023-07-08T04:53:46;19.60;99.90
6164;DHT22;3114;48.362;10.994;2023-07-08T04:56:16;19.80;99.90
6164;DHT22;3114;48.362;10.994;2023-07-08T04:58:43;20.00;99.90
6164;DHT22;3114;48.362;10.994;2023-07-08T05:01:10;20.10;99.90
6164;DHT22;3114;48.362;10.994;2023-07-08T05:03:37;20.20;99.90
6164;DHT22;3114;48.362;10.994;2023-07-08T05:06:04;20.20;99.90
6164;DHT22;3114;48.362;10.994;2023-07-08T05:08:31;20.40;99.90
6164;DHT22;3114;48.362;10.994;2023-07-08T05:10:59;20.40;99.90
6164;DHT22;3114;48.362;10.994;2023-07-08T05:13:26;20.40;99.90
6164;DHT22;3114;48.362;10.994;2023-07-08T05:15:53;20.50;99.90
6164;DHT22;3114;48.362;10.994;2023-07-08T05:18:20;20.60;99.90
6164;DHT22;3114;48.362;10.994;2023-07-08T05:20:51;20.60;99.90
6164;DHT22;3114;48.362;10.994;2023-07-08T05:23:20;20.60;99.90
6164;DHT22;3114;48.362;10.994;2023-07-08T05:25:48;20.60;99.90
6164;DHT22;3114;48.362;10.994;2023-07-08T05:28:20;20.70;99.90
6164;DHT22;3114;48.362;10.994;2023-07-08T05:30:57;20.80;99.90
6164;DHT22;3114;48.362;10.994;2023-07-08T05:33:25;20.80;99.90
6164;DHT22;3114;48.362;10.994;2023-07-08T05:35:53;20.80;99.90
6164;DHT22;3114;48.362;10.994;2023-07-08T05:38:20;20.80;99.90
6164;DHT22;3114;48.362;10.994;2023-07-08T05:40:53;20.80;99.90
6164;DHT22;3114;48.362;10.994;2023-07-08T05:43:22;20.80;99.90
6164;DHT22;3114;48.362;10.994;2023-07-08T05:45:56;20.80;99.90
6164;DHT22;3114;48.362;10.994;2023-07-08T05:48:26;20.70;99.90
6164;DHT22;3114;48.362;10.994;2023-07-08T05:50:54;20.70;99.90
6164;DHT22;3114;48.362;10.994;2023-07-08T05:53:23;20.60;99.90
6164;DHT22;3114;48.362;10.994;2023-07-08T05:55:50;20.50;99.90
6164;DHT22;3114;48.362;10.994;2023-07-08T05:58:24;20.50;99.90
6164;DHT22;3114;48.362;10.994;2023-07-08T06:00:55;20.40;99.90
6164;DHT22;3114;48.362;10.994;2023-07-08T06:03:37;20.60;99.90
6164;DHT22;3114;48.362;10.994;2023-07-08T06:06:05;20.70;99.90
6164;DHT22;3114;48.362;10.994;2023-07-08T06:08:32;20.80;99.90
6164;DHT22;3114;48.362;10.994;2023-07-08T06:11:05;21.00;99.90
6164;DHT22;3114;48.362;10.994;2023-07-08T06:13:35;20.80;99.90
6164;DHT22;3114;48.362;10.994;2023-07-08T06:16:03;21.10;99.90
6164;DHT22;3114;48.362;10.994;2023-07-08T06:18:32;21.20;99.90
6164;DHT22;3114;48.362;10.994;2023-07-08T06:21:05;21.20;99.90
6164;DHT22;3114;48.362;10.994;2023-07-08T06:23:33;21.40;99.90
6164;DHT22;3114;48.362;10.994;2023-07-08T06:26:00;21.40;99.90
6164;DHT22;3114;48.362;10.994;2023-07-08T06:28:27;21.50;99.90
6164;DHT22;3114;48.362;10.994;2023-07-08T06:31:03;21.40;99.90
6164;DHT22;3114;48.362;10.994;2023-07-08T06:33:32;21.60;99.90
6164;DHT22;3114;48.362;10.994;2023-07-08T06:36:01;21.60;99.90
6164;DHT22;3114;48.362;10.994;2023-07-08T06:38:27;21.60;99.90
6164;DHT22;3114;48.362;10.994;2023-07-08T06:40:56;21.80;99.90
6164;DHT22;3114;48.362;10.994;2023-07-08T06:43:25;21.80;99.90
6164;DHT22;3114;48.362;10.994;2023-07-08T06:45:52;21.60;99.90
6164;DHT22;3114;48.362;10.994;2023-07-08T06:48:25;21.70;99.90
6164;DHT22;3114;48.362;10.994;2023-07-08T06:50:52;21.90;99.90
6164;DHT22;3114;48.362;10.994;2023-07-08T06:53:34;21.90;99.90
6164;DHT22;3114;48.362;10.994;2023-07-08T06:56:01;21.80;99.90
6164;DHT22;3114;48.362;10.994;2023-07-08T06:58:35;21.80;99.90
6164;DHT22;3114;48.362;10.994;2023-07-08T07:01:05;21.90;99.90
6164;DHT22;3114;48.362;10.994;2023-07-08T07:03:44;22.10;99.90
6164;DHT22;3114;48.362;10.994;2023-07-08T07:06:14;22.30;99.90
6164;DHT22;3114;48.362;10.994;2023-07-08T07:08:42;22.30;99.90
6164;DHT22;3114;48.362;10.994;2023-07-08T07:11:09;22.40;99.90
6164;DHT22;3114;48.362;10.994;2023-07-08T07:13:36;22.40;99.90
6164;DHT22;3114;48.362;10.994;2023-07-08T07:16:04;22.20;99.90
6164;DHT22;3114;48.362;10.994;2023-07-08T07:18:30;22.30;99.90
6164;DHT22;3114;48.362;10.994;2023-07-08T07:20:59;22.30;99.90
6164;DHT22;3114;48.362;10.994;2023-07-08T07:23:26;21.90;99.90
6164;DHT22;3114;48.362;10.994;2023-07-08T07:25:52;21.70;99.90
6164;DHT22;3114;48.362;10.994;2023-07-08T07:28:19;21.40;99.90
6164;DHT22;3114;48.362;10.994;2023-07-08T07:30:47;21.30;99.90
6164;DHT22;3114;48.362;10.994;2023-07-08T07:33:13;21.30;99.90
6164;DHT22;3114;48.362;10.994;2023-07-08T07:35:44;21.10;99.90
6164;DHT22;3114;48.362;10.994;2023-07-08T07:38:14;21.00;99.90
6164;DHT22;3114;48.362;10.994;2023-07-08T07:40:41;21.00;99.90
6164;DHT22;3114;48.362;10.994;2023-07-08T07:43:08;21.10;99.90
6164;DHT22;3114;48.362;10.994;2023-07-08T07:45:35;21.10;99.90
6164;DHT22;3114;48.362;10.994;2023-07-08T07:48:02;21.20;99.90
6164;DHT22;3114;48.362;10.994;2023-07-08T07:50:30;21.20;99.90
6164;DHT22;3114;48.362;10.994;2023-07-08T07:52:57;21.10;99.90
6164;DHT22;3114;48.362;10.994;2023-07-08T07:55:25;21.20;99.90
6164;DHT22;3114;48.362;10.994;2023-07-08T07:57:52;21.20;99.90
6164;DHT22;3114;48.362;10.994;2023-07-08T08:00:19;21.20;99.90
6164;DHT22;3114;48.362;10.994;2023-07-08T08:02:46;21.20;99.90
6164;DHT22;3114;48.362;10.994;2023-07-08T08:05:13;21.20;99.90
6164;DHT22;3114;48.362;10.994;2023-07-08T08:07:40;21.20;99.90
6164;DHT22;3114;48.362;10.994;2023-07-08T08:10:07;21.40;99.90
6164;DHT22;3114;48.362;10.994;2023-07-08T08:12:36;21.70;99.90
6164;DHT22;3114;48.362;10.994;2023-07-08T08:15:03;21.90;99.90
6164;DHT22;3114;48.362;10.994;2023-07-08T08:17:30;22.10;99.90
6164;DHT22;3114;48.362;10.994;2023-07-08T08:19:57;22.30;99.90
6164;DHT22;3114;48.362;10.994;2023-07-08T08:22:23;22.50;99.90
6164;DHT22;3114;48.362;10.994;2023-07-08T08:24:50;22.60;99.90
6164;DHT22;3114;48.362;10.994;2023-07-08T08:27:17;22.70;99.90
6164;DHT22;3114;48.362;10.994;2023-07-08T08:29:45;22.70;99.90
6164;DHT22;3114;48.362;10.994;2023-07-08T08:32:12;22.90;99.90
6164;DHT22;3114;48.362;10.994;2023-07-08T08:34:40;22.90;99.90
6164;DHT22;3114;48.362;10.994;2023-07-08T08:37:08;23.00;99.90
6164;DHT22;3114;48.362;10.994;2023-07-08T08:39:34;23.00;99.90
6164;DHT22;3114;48.362;10.994;2023-07-08T08:42:01;23.10;99.90
6164;DHT22;3114;48.362;10.994;2023-07-08T08:44:32;23.20;99.90
6164;DHT22;3114;48.362;10.994;2023-07-08T08:47:06;23.30;99.90
6164;DHT22;3114;48.362;10.994;2023-07-08T08:49:43;23.40;99.90
6164;DHT22;3114;48.362;10.994;2023-07-08T08:52:11;23.50;99.90
6164;DHT22;3114;48.362;10.994;2023-07-08T08:54:40;23.60;99.90
6164;DHT22;3114;48.362;10.994;2023-07-08T08:57:16;23.60;99.90
6164;DHT22;3114;48.362;10.994;2023-07-08T08:59:51;23.50;99.90
6164;DHT22;3114;48.362;10.994;2023-07-08T09:02:31;23.70;99.90
6164;DHT22;3114;48.362;10.994;2023-07-08T09:05:04;23.90;99.90
6164;DHT22;3114;48.362;10.994;2023-07-08T09:07:44;24.10;99.90
6164;DHT22;3114;48.362;10.994;2023-07-08T09:10:21;23.70;99.90
6164;DHT22;3114;48.362;10.994;2023-07-08T09:12:53;23.90;99.90
6164;DHT22;3114;48.362;10.994;2023-07-08T09:15:21;23.90;99.90
6164;DHT22;3114;48.362;10.994;2023-07-08T09:17:51;24.00;99.90
6164;DHT22;3114;48.362;10.994;2023-07-08T09:20:23;24.00;99.90
6164;DHT22;3114;48.362;10.994;2023-07-08T09:22:56;24.10;99.90
6164;DHT22;3114;48.362;10.994;2023-07-08T09:25:28;24.00;99.90
6164;DHT22;3114;48.362;10.994;2023-07-08T09:28:29;23.80;99.90
6164;DHT22;3114;48.362;10.994;2023-07-08T09:31:02;24.10;99.90
6164;DHT22;3114;48.362;10.994;2023-07-08T09:36:47;24.70;99.90
6164;DHT22;3114;48.362;10.994;2023-07-08T09:39:15;24.80;99.90
6164;DHT22;3114;48.362;10.994;2023-07-08T09:41:44;24.60;99.90
6164;DHT22;3114;48.362;10.994;2023-07-08T09:44:22;24.30;99.90
6164;DHT22;3114;48.362;10.994;2023-07-08T09:46:52;24.50;99.90
6164;DHT22;3114;48.362;10.994;2023-07-08T09:49:23;24.60;99.90
6164;DHT22;3114;48.362;10.994;2023-07-08T09:51:52;24.60;99.90
6164;DHT22;3114;48.362;10.994;2023-07-08T09:54:21;24.70;99.90
6164;DHT22;3114;48.362;10.994;2023-07-08T09:57:02;24.80;99.90
6164;DHT22;3114;48.362;10.994;2023-07-08T09:59:38;24.50;99.90
6164;DHT22;3114;48.362;10.994;2023-07-08T10:02:27;24.00;99.90
6164;DHT22;3114;48.362;10.994;2023-07-08T10:04:57;24.00;99.90
6164;DHT22;3114;48.362;10.994;2023-07-08T10:07:30;24.10;99.90
6164;DHT22;3114;48.362;10.994;2023-07-08T10:10:04;24.20;99.90
6164;DHT22;3114;48.362;10.994;2023-07-08T10:12:34;24.20;99.90
6164;DHT22;3114;48.362;10.994;2023-07-08T10:15:12;24.00;99.90
6164;DHT22;3114;48.362;10.994;2023-07-08T10:17:41;23.90;99.90
6164;DHT22;3114;48.362;10.994;2023-07-08T10:20:13;24.00;99.90
6164;DHT22;3114;48.362;10.994;2023-07-08T10:22:51;24.00;99.90
6164;DHT22;3114;48.362;10.994;2023-07-08T10:25:28;24.00;99.90
6164;DHT22;3114;48.362;10.994;2023-07-08T10:28:03;24.00;99.90
6164;DHT22;3114;48.362;10.994;2023-07-08T10:30:38;24.30;99.90
6164;DHT22;3114;48.362;10.994;2023-07-08T10:33:31;24.50;99.90
6164;DHT22;3114;48.362;10.994;2023-07-08T10:36:18;24.60;99.90
6164;DHT22;3114;48.362;10.994;2023-07-08T10:39:10;25.00;99.90
6164;DHT22;3114;48.362;10.994;2023-07-08T10:41:51;25.30;99.90
6164;DHT22;3114;48.362;10.994;2023-07-08T10:44:24;25.90;99.90
6164;DHT22;3114;48.362;10.994;2023-07-08T10:47:02;26.30;99.90
6164;DHT22;3114;48.362;10.994;2023-07-08T10:49:41;27.70;99.90
6164;DHT22;3114;48.362;10.994;2023-07-08T10:52:26;26.50;99.90
6164;DHT22;3114;48.362;10.994;2023-07-08T11:00:43;26.30;99.90
6164;DHT22;3114;48.362;10.994;2023-07-08T11:03:31;26.40;99.90
6164;DHT22;3114;48.362;10.994;2023-07-08T11:06:03;26.30;99.90
6164;DHT22;3114;48.362;10.994;2023-07-08T11:08:35;26.40;99.90
6164;DHT22;3114;48.362;10.994;2023-07-08T11:11:09;26.60;99.90
6164;DHT22;3114;48.362;10.994;2023-07-08T11:13:44;26.80;99.90
6164;DHT22;3114;48.362;10.994;2023-07-08T11:16:19;26.90;99.90
6164;DHT22;3114;48.362;10.994;2023-07-08T11:18:56;27.00;99.90
6164;DHT22;3114;48.362;10.994;2023-07-08T11:21:26;26.80;99.90
6164;DHT22;3114;48.362;10.994;2023-07-08T11:23:59;26.90;99.90
6164;DHT22;3114;48.362;10.994;2023-07-08T11:26:33;26.90;99.90
6164;DHT22;3114;48.362;10.994;2023-07-08T11:29:14;26.80;99.90
6164;DHT22;3114;48.362;10.994;2023-07-08T11:31:42;26.50;99.90
6164;DHT22;3114;48.362;10.994;2023-07-08T11:34:12;26.50;99.90
6164;DHT22;3114;48.362;10.994;2023-07-08T11:36:41;26.60;99.90
6164;DHT22;3114;48.362;10.994;2023-07-08T11:39:28;26.70;99.90
6164;DHT22;3114;48.362;10.994;2023-07-08T11:42:17;26.80;99.90
6164;DHT22;3114;48.362;10.994;2023-07-08T11:44:48;27.00;99.90
6164;DHT22;3114;48.362;10.994;2023-07-08T11:47:20;27.10;99.90
6164;DHT22;3114;48.362;10.994;2023-07-08T11:49:50;27.70;99.90
6164;DHT22;3114;48.362;10.994;2023-07-08T11:52:21;28.20;99.90
6164;DHT22;3114;48.362;10.994;2023-07-08T11:54:58;28.50;99.90
6164;DHT22;3114;48.362;10.994;2023-07-08T11:57:37;28.90;99.90
6164;DHT22;3114;48.362;10.994;2023-07-08T12:00:17;29.10;99.90
6164;DHT22;3114;48.362;10.994;2023-07-08T12:02:55;29.30;99.90
6164;DHT22;3114;48.362;10.994;2023-07-08T12:05:31;29.60;99.90
6164;DHT22;3114;48.362;10.994;2023-07-08T12:07:58;29.70;99.90
6164;DHT22;3114;48.362;10.994;2023-07-08T12:10:32;29.80;99.90
6164;DHT22;3114;48.362;10.994;2023-07-08T12:13:03;30.00;99.90
6164;DHT22;3114;48.362;10.994;2023-07-08T12:15:34;29.80;99.90
6164;DHT22;3114;48.362;10.994;2023-07-08T12:18:06;29.80;99.90
6164;DHT22;3114;48.362;10.994;2023-07-08T12:20:38;29.20;99.90
6164;DHT22;3114;48.362;10.994;2023-07-08T12:23:11;28.90;99.90
6164;DHT22;3114;48.362;10.994;2023-07-08T12:25:39;28.90;99.90
6164;DHT22;3114;48.362;10.994;2023-07-08T12:28:16;29.10;99.90
6164;DHT22;3114;48.362;10.994;2023-07-08T12:30:45;29.40;99.90
6164;DHT22;3114;48.362;10.994;2023-07-08T12:33:16;29.40;99.90
6164;DHT22;3114;48.362;10.994;2023-07-08T12:35:45;30.10;99.90
6164;DHT22;3114;48.362;10.994;2023-07-08T12:38:28;31.50;99.90
6164;DHT22;3114;48.362;10.994;2023-07-08T12:40:58;35.60;99.90
6164;DHT22;3114;48.362;10.994;2023-07-08T12:43:30;38.80;99.90
6164;DHT22;3114;48.362;10.994;2023-07-08T12:45:57;38.90;99.90
6164;DHT22;3114;48.362;10.994;2023-07-08T12:48:24;39.70;99.90
6164;DHT22;3114;48.362;10.994;2023-07-08T12:50:51;40.40;99.90
6164;DHT22;3114;48.362;10.994;2023-07-08T12:53:19;42.00;99.90
6164;DHT22;3114;48.362;10.994;2023-07-08T12:55:50;40.70;99.90
6164;DHT22;3114;48.362;10.994;2023-07-08T12:58:22;40.80;99.90
6164;DHT22;3114;48.362;10.994;2023-07-08T13:00:55;42.10;99.90
6164;DHT22;3114;48.362;10.994;2023-07-08T13:03:24;41.30;99.90
6164;DHT22;3114;48.362;10.994;2023-07-08T13:05:53;40.20;99.90
6164;DHT22;3114;48.362;10.994;2023-07-08T13:08:30;40.20;99.90
6164;DHT22;3114;48.362;10.994;2023-07-08T13:11:02;37.00;99.90
6164;DHT22;3114;48.362;10.994;2023-07-08T13:13:35;36.10;99.90
6164;DHT22;3114;48.362;10.994;2023-07-08T13:16:12;35.90;99.90
6164;DHT22;3114;48.362;10.994;2023-07-08T13:18:44;36.50;99.90
6164;DHT22;3114;48.362;10.994;2023-07-08T13:21:15;37.00;99.90
6164;DHT22;3114;48.362;10.994;2023-07-08T13:23:43;36.20;99.90
6164;DHT22;3114;48.362;10.994;2023-07-08T13:26:14;37.60;99.90
6164;DHT22;3114;48.362;10.994;2023-07-08T13:28:42;40.10;99.90
6164;DHT22;3114;48.362;10.994;2023-07-08T13:31:17;40.00;99.90
6164;DHT22;3114;48.362;10.994;2023-07-08T13:33:48;39.20;99.90
6164;DHT22;3114;48.362;10.994;2023-07-08T13:36:22;39.70;99.90
6164;DHT22;3114;48.362;10.994;2023-07-08T13:38:50;40.90;99.90
6164;DHT22;3114;48.362;10.994;2023-07-08T13:41:21;41.50;99.90
6164;DHT22;3114;48.362;10.994;2023-07-08T13:43:51;40.10;99.90
6164;DHT22;3114;48.362;10.994;2023-07-08T13:46:34;39.90;99.90
6164;DHT22;3114;48.362;10.994;2023-07-08T13:49:02;40.30;99.90
6164;DHT22;3114;48.362;10.994;2023-07-08T13:51:31;39.10;99.90
6164;DHT22;3114;48.362;10.994;2023-07-08T13:54:00;41.10;99.90
6164;DHT22;3114;48.362;10.994;2023-07-08T13:56:34;40.50;99.90
6164;DHT22;3114;48.362;10.994;2023-07-08T13:59:06;39.20;99.90
6164;DHT22;3114;48.362;10.994;2023-07-08T14:01:37;39.20;99.90
6164;DHT22;3114;48.362;10.994;2023-07-08T14:04:05;40.00;99.90
6164;DHT22;3114;48.362;10.994;2023-07-08T14:09:21;42.00;99.90
6164;DHT22;3114;48.362;10.994;2023-07-08T14:11:54;42.50;99.90
6164;DHT22;3114;48.362;10.994;2023-07-08T14:14:22;42.80;99.90
6164;DHT22;3114;48.362;10.994;2023-07-08T14:16:52;42.70;99.90
6164;DHT22;3114;48.362;10.994;2023-07-08T14:19:28;42.30;99.90
6164;DHT22;3114;48.362;10.994;2023-07-08T14:22:02;40.90;99.90
6164;DHT22;3114;48.362;10.994;2023-07-08T14:24:29;39.70;99.90
6164;DHT22;3114;48.362;10.994;2023-07-08T14:26:59;39.00;99.90
6164;DHT22;3114;48.362;10.994;2023-07-08T14:32:20;37.40;99.90
6164;DHT22;3114;48.362;10.994;2023-07-08T14:34:51;37.20;99.90
6164;DHT22;3114;48.362;10.994;2023-07-08T14:37:19;36.50;99.90
6164;DHT22;3114;48.362;10.994;2023-07-08T14:39:46;35.20;99.90
6164;DHT22;3114;48.362;10.994;2023-07-08T14:42:20;34.80;99.90
6164;DHT22;3114;48.362;10.994;2023-07-08T14:44:48;34.60;99.90
6164;DHT22;3114;48.362;10.994;2023-07-08T14:47:19;35.20;99.90
6164;DHT22;3114;48.362;10.994;2023-07-08T14:49:49;35.60;99.90
6164;DHT22;3114;48.362;10.994;2023-07-08T14:52:17;35.90;99.90
6164;DHT22;3114;48.362;10.994;2023-07-08T14:54:44;35.80;99.90
6164;DHT22;3114;48.362;10.994;2023-07-08T14:57:15;34.60;99.90
6164;DHT22;3114;48.362;10.994;2023-07-08T15:03:04;33.80;99.90
6164;DHT22;3114;48.362;10.994;2023-07-08T15:05:33;34.70;99.90
6164;DHT22;3114;48.362;10.994;2023-07-08T15:08:02;34.40;99.90
6164;DHT22;3114;48.362;10.994;2023-07-08T15:10:35;34.30;99.90
6164;DHT22;3114;48.362;10.994;2023-07-08T15:13:03;34.40;99.90
6164;DHT22;3114;48.362;10.994;2023-07-08T15:15:32;34.10;99.90
6164;DHT22;3114;48.362;10.994;2023-07-08T15:18:11;34.20;99.90
6164;DHT22;3114;48.362;10.994;2023-07-08T15:20:45;34.40;99.90
6164;DHT22;3114;48.362;10.994;2023-07-08T15:23:15;34.10;99.90
6164;DHT22;3114;48.362;10.994;2023-07-08T15:25:47;34.00;99.90
6164;DHT22;3114;48.362;10.994;2023-07-08T15:28:18;34.20;99.90
6164;DHT22;3114;48.362;10.994;2023-07-08T15:30:47;34.40;99.90
6164;DHT22;3114;48.362;10.994;2023-07-08T15:33:21;34.10;99.90
6164;DHT22;3114;48.362;10.994;2023-07-08T15:35:48;33.90;99.90
6164;DHT22;3114;48.362;10.994;2023-07-08T15:38:18;33.70;99.90
6164;DHT22;3114;48.362;10.994;2023-07-08T15:40:45;33.70;99.90
6164;DHT22;3114;48.362;10.994;2023-07-08T15:43:14;33.70;99.90
6164;DHT22;3114;48.362;10.994;2023-07-08T15:45:45;33.70;99.90
6164;DHT22;3114;48.362;10.994;2023-07-08T15:48:13;33.50;99.90
6164;DHT22;3114;48.362;10.994;2023-07-08T15:50:45;33.40;99.90
6164;DHT22;3114;48.362;10.994;2023-07-08T15:53:18;33.40;99.90
6164;DHT22;3114;48.362;10.994;2023-07-08T15:55:49;33.10;99.90
6164;DHT22;3114;48.362;10.994;2023-07-08T15:58:24;32.50;99.90
6164;DHT22;3114;48.362;10.994;2023-07-08T16:00:54;32.00;99.90
6164;DHT22;3114;48.362;10.994;2023-07-08T16:03:24;30.60;99.90
6164;DHT22;3114;48.362;10.994;2023-07-08T16:05:53;31.90;99.90
6164;DHT22;3114;48.362;10.994;2023-07-08T16:08:26;32.00;99.90
6164;DHT22;3114;48.362;10.994;2023-07-08T16:10:58;31.90;99.90
6164;DHT22;3114;48.362;10.994;2023-07-08T16:13:28;31.80;99.90
6164;DHT22;3114;48.362;10.994;2023-07-08T16:16:04;31.70;99.90
6164;DHT22;3114;48.362;10.994;2023-07-08T16:18:42;31.70;99.90
6164;DHT22;3114;48.362;10.994;2023-07-08T16:21:20;31.60;99.90
6164;DHT22;3114;48.362;10.994;2023-07-08T16:23:49;31.50;99.90
6164;DHT22;3114;48.362;10.994;2023-07-08T16:26:19;31.40;99.90